sensor_id;sensor_type;location;lat;lon;timestamp;pressure;altitude;pressure_sealevel;temperature;humidity
2791;BME280;31795;50.970;13.366;2022-07-03T00:00:06;98253.59;;;13.18;100.00
2791;BME280;31795;50.970;13.366;2022-07-03T00:02:20;98253.78;;;13.17;100.00
2791;BME280;31795;50.970;13.366;2022-07-03T00:04:26;98251.81;;;13.19;100.00
2791;BME280;31795;50.970;13.366;2022-07-03T00:06:36;98245.56;;;13.20;100.00
2791;BME280;31795;50.970;13.366;2022-07-03T00:08:43;98249.97;;;13.19;100.00
2791;BME280;31795;50.970;13.366;2022-07-03T00:11:00;98246.72;;;13.17;100.00
2791;BME280;31795;50.970;13.366;2022-07-03T00:13:14;98248.34;;;13.18;100.00
2791;BME280;31795;50.970;13.366;2022-07-03T00:15:25;98244.31;;;13.16;100.00
2791;BME280;31795;50.970;13.366;2022-07-03T00:17:33;98253.94;;;13.09;100.00
2791;BME280;31795;50.970;13.366;2022-07-03T00:20:05;98249.06;;;13.06;100.00
2791;BME280;31795;50.970;13.366;2022-07-03T00:22:30;98248.44;;;13.03;100.00
2791;BME280;31795;50.970;13.366;2022-07-03T00:24:42;98246.00;;;13.02;100.00
2791;BME280;31795;50.970;13.366;2022-07-03T00:26:51;98244.75;;;12.98;100.00
2791;BME280;31795;50.970;13.366;2022-07-03T00:28:59;98242.91;;;12.98;100.00
2791;BME280;31795;50.970;13.366;2022-07-03T00:31:09;98242.56;;;13.01;100.00
2791;BME280;31795;50.970;13.366;2022-07-03T00:33:18;98244.38;;;13.01;100.00
2791;BME280;31795;50.970;13.366;2022-07-03T00:35:25;98243.50;;;12.94;100.00
2791;BME280;31795;50.970;13.366;2022-07-03T00:37:31;98234.81;;;12.93;100.00
2791;BME280;31795;50.970;13.366;2022-07-03T00:39:42;98234.47;;;12.96;100.00
2791;BME280;31795;50.970;13.366;2022-07-03T00:41:59;98232.00;;;12.95;100.00
2791;BME280;31795;50.970;13.366;2022-07-03T00:44:06;98235.19;;;12.90;100.00
2791;BME280;31795;50.970;13.366;2022-07-03T00:46:21;98228.06;;;12.84;100.00
2791;BME280;31795;50.970;13.366;2022-07-03T00:48:38;98228.47;;;12.81;100.00
2791;BME280;31795;50.970;13.366;2022-07-03T00:50:50;98223.59;;;12.78;100.00
2791;BME280;31795;50.970;13.366;2022-07-03T00:53:06;98216.91;;;12.75;100.00
2791;BME280;31795;50.970;13.366;2022-07-03T00:55:18;98211.22;;;12.71;100.00
2791;BME280;31795;50.970;13.366;2022-07-03T00:57:33;98221.53;;;12.73;100.00
2791;BME280;31795;50.970;13.366;2022-07-03T00:59:44;98211.63;;;12.68;100.00
2791;BME280;31795;50.970;13.366;2022-07-03T01:02:02;98214.16;;;12.62;100.00
2791;BME280;31795;50.970;13.366;2022-07-03T01:04:20;98210.53;;;12.63;100.00
2791;BME280;31795;50.970;13.366;2022-07-03T01:06:33;98207.84;;;12.56;100.00
2791;BME280;31795;50.970;13.366;2022-07-03T01:08:42;98201.63;;;12.57;100.00
2791;BME280;31795;50.970;13.366;2022-07-03T01:10:54;98197.75;;;12.53;100.00
2791;BME280;31795;50.970;13.366;2022-07-03T01:13:09;98199.47;;;12.46;100.00
2791;BME280;31795;50.970;13.366;2022-07-03T01:15:27;98192.78;;;12.43;100.00
2791;BME280;31795;50.970;13.366;2022-07-03T01:17:48;98191.59;;;12.46;100.00
2791;BME280;31795;50.970;13.366;2022-07-03T01:20:01;98189.75;;;12.39;100.00
2791;BME280;31795;50.970;13.366;2022-07-03T01:22:28;98188.56;;;12.42;100.00
2791;BME280;31795;50.970;13.366;2022-07-03T01:25:01;98188.56;;;12.42;100.00
2791;BME280;31795;50.970;13.366;2022-07-03T01:27:14;98183.69;;;12.39;100.00
2791;BME280;31795;50.970;13.366;2022-07-03T01:29:28;98192.53;;;12.38;100.00
2791;BME280;31795;50.970;13.366;2022-07-03T01:31:38;98190.31;;;12.35;100.00
2791;BME280;31795;50.970;13.366;2022-07-03T01:33:49;98180.97;;;12.32;100.00
2791;BME280;31795;50.970;13.366;2022-07-03T01:36:02;98186.78;;;12.27;100.00
2791;BME280;31795;50.970;13.366;2022-07-03T01:38:17;98183.44;;;12.19;100.00
2791;BME280;31795;50.970;13.366;2022-07-03T01:40:31;98184.19;;;12.13;100.00
2791;BME280;31795;50.970;13.366;2022-07-03T01:42:44;98175.06;;;12.08;100.00
2791;BME280;31795;50.970;13.366;2022-07-03T01:44:51;98172.66;;;12.07;100.00
2791;BME280;31795;50.970;13.366;2022-07-03T01:46:59;98176.81;;;12.01;100.00
2791;BME280;31795;50.970;13.366;2022-07-03T01:49:10;98173.25;;;11.94;100.00
2791;BME280;31795;50.970;13.366;2022-07-03T01:51:19;98173.88;;;11.96;100.00
2791;BME280;31795;50.970;13.366;2022-07-03T01:53:29;98159.03;;;11.96;100.00
2791;BME280;31795;50.970;13.366;2022-07-03T01:55:48;98164.41;;;11.95;100.00
2791;BME280;31795;50.970;13.366;2022-07-03T01:57:59;98165.16;;;11.89;100.00
2791;BME280;31795;50.970;13.366;2022-07-03T02:00:10;98163.69;;;11.86;100.00
2791;BME280;31795;50.970;13.366;2022-07-03T02:02:22;98159.19;;;11.80;100.00
2791;BME280;31795;50.970;13.366;2022-07-03T02:04:33;98164.44;;;11.80;100.00
2791;BME280;31795;50.970;13.366;2022-07-03T02:06:44;98155.31;;;11.76;100.00
2791;BME280;31795;50.970;13.366;2022-07-03T02:08:57;98153.88;;;11.73;100.00
2791;BME280;31795;50.970;13.366;2022-07-03T02:11:15;98148.22;;;11.70;100.00
2791;BME280;31795;50.970;13.366;2022-07-03T02:13:37;98149.00;;;11.70;100.00
2791;BME280;31795;50.970;13.366;2022-07-03T02:15:50;98148.72;;;11.65;100.00
2791;BME280;31795;50.970;13.366;2022-07-03T02:18:00;98150.75;;;11.63;100.00
2791;BME280;31795;50.970;13.366;2022-07-03T02:20:11;98151.09;;;11.60;100.00
2791;BME280;31795;50.970;13.366;2022-07-03T02:22:18;98147.66;;;11.59;100.00
2791;BME280;31795;50.970;13.366;2022-07-03T02:24:26;98144.03;;;11.60;100.00
2791;BME280;31795;50.970;13.366;2022-07-03T02:26:39;98146.84;;;11.59;100.00
2791;BME280;31795;50.970;13.366;2022-07-03T02:29:09;98139.91;;;11.51;100.00
2791;BME280;31795;50.970;13.366;2022-07-03T02:31:21;98139.09;;;11.50;100.00
2791;BME280;31795;50.970;13.366;2022-07-03T02:33:56;98146.66;;;11.45;100.00
2791;BME280;31795;50.970;13.366;2022-07-03T02:36:05;98140.78;;;11.43;100.00
2791;BME280;31795;50.970;13.366;2022-07-03T02:38:17;98147.56;;;11.38;100.00
2791;BME280;31795;50.970;13.366;2022-07-03T02:40:28;98135.47;;;11.37;100.00
2791;BME280;31795;50.970;13.366;2022-07-03T02:42:42;98148.00;;;11.41;100.00
2791;BME280;31795;50.970;13.366;2022-07-03T02:44:57;98133.69;;;11.37;100.00
2791;BME280;31795;50.970;13.366;2022-07-03T02:47:19;98144.16;;;11.37;100.00
2791;BME280;31795;50.970;13.366;2022-07-03T02:49:53;98142.97;;;11.40;100.00
2791;BME280;31795;50.970;13.366;2022-07-03T02:52:12;98139.53;;;11.39;100.00
2791;BME280;31795;50.970;13.366;2022-07-03T02:54:19;98141.88;;;11.34;100.00
2791;BME280;31795;50.970;13.366;2022-07-03T02:56:34;98143.50;;;11.35;100.00
2791;BME280;31795;50.970;13.366;2022-07-03T02:59:06;98140.78;;;11.28;100.00
2791;BME280;31795;50.970;13.366;2022-07-03T03:01:27;98142.78;;;11.26;100.00
2791;BME280;31795;50.970;13.366;2022-07-03T03:03:45;98144.94;;;11.23;100.00
2791;BME280;31795;50.970;13.366;2022-07-03T03:06:01;98142.56;;;11.28;100.00
2791;BME280;31795;50.970;13.366;2022-07-03T03:08:11;98139.16;;;11.27;100.00
2791;BME280;31795;50.970;13.366;2022-07-03T03:10:21;98143.22;;;11.30;100.00
2791;BME280;31795;50.970;13.366;2022-07-03T03:12:30;98147.25;;;11.32;100.00
2791;BME280;31795;50.970;13.366;2022-07-03T03:14:39;98147.09;;;11.34;100.00
2791;BME280;31795;50.970;13.366;2022-07-03T03:16:52;98142.03;;;11.32;100.00
2791;BME280;31795;50.970;13.366;2022-07-03T03:19:01;98149.53;;;11.35;100.00
2791;BME280;31795;50.970;13.366;2022-07-03T03:21:16;98146.28;;;11.33;100.00
2791;BME280;31795;50.970;13.366;2022-07-03T03:23:35;98152.50;;;11.32;100.00
2791;BME280;31795;50.970;13.366;2022-07-03T03:25:42;98155.59;;;11.36;100.00
2791;BME280;31795;50.970;13.366;2022-07-03T03:27:52;98151.78;;;11.39;100.00
2791;BME280;31795;50.970;13.366;2022-07-03T03:30:00;98156.38;;;11.37;100.00
2791;BME280;31795;50.970;13.366;2022-07-03T03:32:08;98151.34;;;11.35;100.00
2791;BME280;31795;50.970;13.366;2022-07-03T03:34:20;98155.41;;;11.38;100.00
2791;BME280;31795;50.970;13.366;2022-07-03T03:36:29;98158.19;;;11.36;100.00
2791;BME280;31795;50.970;13.366;2022-07-03T03:38:53;98149.19;;;11.39;100.00
2791;BME280;31795;50.970;13.366;2022-07-03T03:41:02;98154.69;;;11.44;100.00
2791;BME280;31795;50.970;13.366;2022-07-03T03:43:08;98154.50;;;11.45;100.00
2791;BME280;31795;50.970;13.366;2022-07-03T03:45:15;98151.69;;;11.47;100.00
2791;BME280;31795;50.970;13.366;2022-07-03T03:47:25;98151.16;;;11.52;100.00
2791;BME280;31795;50.970;13.366;2022-07-03T03:49:32;98148.72;;;11.65;100.00
2791;BME280;31795;50.970;13.366;2022-07-03T03:51:41;98152.00;;;11.82;100.00
2791;BME280;31795;50.970;13.366;2022-07-03T03:53:49;98158.41;;;12.31;100.00
2791;BME280;31795;50.970;13.366;2022-07-03T03:55:59;98152.00;;;13.84;100.00
2791;BME280;31795;50.970;13.366;2022-07-03T03:58:06;98145.06;;;16.06;100.00
2791;BME280;31795;50.970;13.366;2022-07-03T04:00:16;98143.53;;;18.01;100.00
2791;BME280;31795;50.970;13.366;2022-07-03T04:02:23;98142.38;;;19.48;100.00
2791;BME280;31795;50.970;13.366;2022-07-03T04:04:45;98143.22;;;18.82;98.02
2791;BME280;31795;50.970;13.366;2022-07-03T04:06:55;98131.38;;;19.92;97.00
2791;BME280;31795;50.970;13.366;2022-07-03T04:09:22;98139.19;;;21.42;88.41
2791;BME280;31795;50.970;13.366;2022-07-03T04:11:29;98131.66;;;22.45;82.67
2791;BME280;31795;50.970;13.366;2022-07-03T04:13:36;98123.25;;;23.29;77.29
2791;BME280;31795;50.970;13.366;2022-07-03T04:15:45;98125.66;;;23.88;73.24
2791;BME280;31795;50.970;13.366;2022-07-03T04:17:54;98128.00;;;24.54;69.88
2791;BME280;31795;50.970;13.366;2022-07-03T04:20:18;98128.25;;;25.14;66.28
2791;BME280;31795;50.970;13.366;2022-07-03T04:22:25;98128.16;;;25.66;63.34
2791;BME280;31795;50.970;13.366;2022-07-03T04:24:32;98119.44;;;25.95;61.89
2791;BME280;31795;50.970;13.366;2022-07-03T04:26:39;98108.31;;;26.27;59.61
2791;BME280;31795;50.970;13.366;2022-07-03T04:28:45;98110.56;;;26.50;57.90
2791;BME280;31795;50.970;13.366;2022-07-03T04:30:56;98112.53;;;26.79;57.09
2791;BME280;31795;50.970;13.366;2022-07-03T04:33:05;98120.56;;;26.73;55.49
2791;BME280;31795;50.970;13.366;2022-07-03T04:35:16;98117.22;;;26.92;55.86
2791;BME280;31795;50.970;13.366;2022-07-03T04:37:22;98111.75;;;27.02;54.41
2791;BME280;31795;50.970;13.366;2022-07-03T04:39:29;98116.56;;;27.05;53.68
2791;BME280;31795;50.970;13.366;2022-07-03T04:41:35;98115.47;;;27.06;53.76
2791;BME280;31795;50.970;13.366;2022-07-03T04:43:42;98110.53;;;27.19;52.72
2791;BME280;31795;50.970;13.366;2022-07-03T04:45:54;98107.69;;;27.34;52.65
2791;BME280;31795;50.970;13.366;2022-07-03T04:48:04;98106.41;;;27.32;52.32
2791;BME280;31795;50.970;13.366;2022-07-03T04:50:10;98108.84;;;27.52;50.62
2791;BME280;31795;50.970;13.366;2022-07-03T04:52:19;98111.75;;;27.56;50.66
2791;BME280;31795;50.970;13.366;2022-07-03T04:54:26;98111.94;;;27.65;50.96
2791;BME280;31795;50.970;13.366;2022-07-03T04:56:32;98113.19;;;27.73;51.39
2791;BME280;31795;50.970;13.366;2022-07-03T04:58:38;98115.53;;;27.55;52.67
2791;BME280;31795;50.970;13.366;2022-07-03T05:00:45;98108.81;;;27.58;52.73
2791;BME280;31795;50.970;13.366;2022-07-03T05:03:05;98102.84;;;27.61;51.67
2791;BME280;31795;50.970;13.366;2022-07-03T05:05:12;98106.72;;;27.74;52.17
2791;BME280;31795;50.970;13.366;2022-07-03T05:07:20;98106.78;;;27.68;52.01
2791;BME280;31795;50.970;13.366;2022-07-03T05:09:26;98107.13;;;27.37;51.76
2791;BME280;31795;50.970;13.366;2022-07-03T05:11:32;98105.88;;;27.30;53.17
2791;BME280;31795;50.970;13.366;2022-07-03T05:13:39;98102.56;;;26.84;54.04
2791;BME280;31795;50.970;13.366;2022-07-03T05:15:45;98105.81;;;26.46;55.18
2791;BME280;31795;50.970;13.366;2022-07-03T05:17:52;98098.09;;;26.40;56.70
2791;BME280;31795;50.970;13.366;2022-07-03T05:20:06;98105.72;;;26.17;57.49
2791;BME280;31795;50.970;13.366;2022-07-03T05:22:40;98101.47;;;26.06;57.50
2791;BME280;31795;50.970;13.366;2022-07-03T05:24:46;98102.81;;;25.48;58.45
2791;BME280;31795;50.970;13.366;2022-07-03T05:26:56;98104.50;;;25.07;59.11
2791;BME280;31795;50.970;13.366;2022-07-03T05:29:02;98102.38;;;24.63;61.13
2791;BME280;31795;50.970;13.366;2022-07-03T05:31:10;98110.88;;;24.34;62.84
2791;BME280;31795;50.970;13.366;2022-07-03T05:33:30;98099.47;;;24.85;61.55
2791;BME280;31795;50.970;13.366;2022-07-03T05:36:04;98102.63;;;24.61;64.32
2791;BME280;31795;50.970;13.366;2022-07-03T05:38:15;98107.94;;;24.30;64.07
2791;BME280;31795;50.970;13.366;2022-07-03T05:40:43;98102.28;;;24.01;66.57
2791;BME280;31795;50.970;13.366;2022-07-03T05:42:49;98105.63;;;23.76;68.36
2791;BME280;31795;50.970;13.366;2022-07-03T05:44:57;98105.72;;;23.38;69.69
2791;BME280;31795;50.970;13.366;2022-07-03T05:47:07;98109.38;;;23.21;70.22
2791;BME280;31795;50.970;13.366;2022-07-03T05:49:18;98103.09;;;23.00;72.84
2791;BME280;31795;50.970;13.366;2022-07-03T05:51:25;98101.59;;;22.77;73.90
2791;BME280;31795;50.970;13.366;2022-07-03T05:53:54;98102.72;;;22.54;73.44
2791;BME280;31795;50.970;13.366;2022-07-03T05:56:23;98099.38;;;22.36;74.46
2791;BME280;31795;50.970;13.366;2022-07-03T05:58:33;98105.44;;;22.31;76.37
2791;BME280;31795;50.970;13.366;2022-07-03T06:00:56;98112.63;;;22.31;76.72
2791;BME280;31795;50.970;13.366;2022-07-03T06:03:08;98107.00;;;22.27;78.07
2791;BME280;31795;50.970;13.366;2022-07-03T06:05:24;98099.81;;;22.00;78.19
2791;BME280;31795;50.970;13.366;2022-07-03T06:07:53;98100.00;;;21.94;78.54
2791;BME280;31795;50.970;13.366;2022-07-03T06:10:01;98102.97;;;21.97;79.24
2791;BME280;31795;50.970;13.366;2022-07-03T06:12:08;98110.19;;;22.02;78.70
2791;BME280;31795;50.970;13.366;2022-07-03T06:14:16;98097.16;;;21.78;81.65
2791;BME280;31795;50.970;13.366;2022-07-03T06:16:26;98095.00;;;21.75;82.53
2791;BME280;31795;50.970;13.366;2022-07-03T06:18:32;98095.16;;;21.63;81.54
2791;BME280;31795;50.970;13.366;2022-07-03T06:20:39;98097.88;;;21.51;81.38
2791;BME280;31795;50.970;13.366;2022-07-03T06:22:48;98101.59;;;21.50;83.15
2791;BME280;31795;50.970;13.366;2022-07-03T06:25:02;98101.59;;;21.50;83.66
2791;BME280;31795;50.970;13.366;2022-07-03T06:27:14;98097.56;;;21.48;82.91
2791;BME280;31795;50.970;13.366;2022-07-03T06:29:27;98109.16;;;21.41;83.81
2791;BME280;31795;50.970;13.366;2022-07-03T06:31:34;98106.47;;;21.36;81.88
2791;BME280;31795;50.970;13.366;2022-07-03T06:33:40;98095.16;;;21.46;84.07
2791;BME280;31795;50.970;13.366;2022-07-03T06:35:57;98092.25;;;21.48;82.83
2791;BME280;31795;50.970;13.366;2022-07-03T06:38:07;98092.00;;;21.49;82.66
2791;BME280;31795;50.970;13.366;2022-07-03T06:40:18;98091.34;;;21.59;84.55
2791;BME280;31795;50.970;13.366;2022-07-03T06:42:25;98088.47;;;21.61;85.75
2791;BME280;31795;50.970;13.366;2022-07-03T06:44:36;98094.47;;;21.56;85.79
2791;BME280;31795;50.970;13.366;2022-07-03T06:46:48;98077.19;;;21.53;83.19
2791;BME280;31795;50.970;13.366;2022-07-03T06:48:55;98076.72;;;21.56;84.38
2791;BME280;31795;50.970;13.366;2022-07-03T06:51:06;98078.53;;;21.56;84.28
2791;BME280;31795;50.970;13.366;2022-07-03T06:53:13;98081.16;;;21.73;84.12
2791;BME280;31795;50.970;13.366;2022-07-03T06:55:23;98083.13;;;21.83;86.43
2791;BME280;31795;50.970;13.366;2022-07-03T06:57:37;98078.97;;;21.92;85.19
2791;BME280;31795;50.970;13.366;2022-07-03T06:59:50;98086.53;;;22.00;84.60
2791;BME280;31795;50.970;13.366;2022-07-03T07:02:02;98084.94;;;22.04;82.61
2791;BME280;31795;50.970;13.366;2022-07-03T07:04:09;98077.63;;;22.17;83.62
2791;BME280;31795;50.970;13.366;2022-07-03T07:06:19;98078.88;;;22.37;83.94
2791;BME280;31795;50.970;13.366;2022-07-03T07:08:28;98084.94;;;22.54;82.30
2791;BME280;31795;50.970;13.366;2022-07-03T07:10:36;98081.84;;;22.68;80.25
2791;BME280;31795;50.970;13.366;2022-07-03T07:12:50;98083.81;;;22.83;81.18
2791;BME280;31795;50.970;13.366;2022-07-03T07:14:57;98086.06;;;23.01;80.58
2791;BME280;31795;50.970;13.366;2022-07-03T07:17:03;98081.94;;;23.21;80.04
2791;BME280;31795;50.970;13.366;2022-07-03T07:19:29;98080.44;;;23.35;80.23
2791;BME280;31795;50.970;13.366;2022-07-03T07:21:36;98083.13;;;23.46;79.30
2791;BME280;31795;50.970;13.366;2022-07-03T07:23:42;98077.03;;;23.50;76.73
2791;BME280;31795;50.970;13.366;2022-07-03T07:25:57;98076.84;;;23.72;77.99
2791;BME280;31795;50.970;13.366;2022-07-03T07:28:10;98073.13;;;23.84;77.04
2791;BME280;31795;50.970;13.366;2022-07-03T07:30:17;98074.81;;;24.00;77.92
2791;BME280;31795;50.970;13.366;2022-07-03T07:32:27;98073.22;;;24.10;75.90
2791;BME280;31795;50.970;13.366;2022-07-03T07:34:33;98067.66;;;24.11;72.34
2791;BME280;31795;50.970;13.366;2022-07-03T07:36:40;98071.94;;;24.38;74.25
2791;BME280;31795;50.970;13.366;2022-07-03T07:38:49;98071.69;;;24.55;73.25
2791;BME280;31795;50.970;13.366;2022-07-03T07:40:59;98075.66;;;24.68;75.85
2791;BME280;31795;50.970;13.366;2022-07-03T07:43:06;98070.63;;;24.82;74.36
2791;BME280;31795;50.970;13.366;2022-07-03T07:45:13;98062.88;;;24.86;70.83
2791;BME280;31795;50.970;13.366;2022-07-03T07:47:19;98068.75;;;24.93;70.46
2791;BME280;31795;50.970;13.366;2022-07-03T07:49:25;98066.84;;;25.04;70.43
2791;BME280;31795;50.970;13.366;2022-07-03T07:51:32;98066.31;;;25.07;68.24
2791;BME280;31795;50.970;13.366;2022-07-03T07:53:38;98076.41;;;25.15;70.95
2791;BME280;31795;50.970;13.366;2022-07-03T07:55:45;98075.09;;;25.18;66.43
2791;BME280;31795;50.970;13.366;2022-07-03T07:57:57;98080.09;;;25.40;70.47
2791;BME280;31795;50.970;13.366;2022-07-03T08:00:11;98069.66;;;25.54;68.96
2791;BME280;31795;50.970;13.366;2022-07-03T08:02:18;98075.00;;;25.54;66.26
2791;BME280;31795;50.970;13.366;2022-07-03T08:04:42;98073.56;;;25.72;70.84
2791;BME280;31795;50.970;13.366;2022-07-03T08:07:06;98059.84;;;25.89;68.13
2791;BME280;31795;50.970;13.366;2022-07-03T08:09:14;98062.19;;;26.41;66.82
2791;BME280;31795;50.970;13.366;2022-07-03T08:11:23;98060.56;;;26.80;66.50
2791;BME280;31795;50.970;13.366;2022-07-03T08:13:37;98052.16;;;27.16;61.74
2791;BME280;31795;50.970;13.366;2022-07-03T08:15:45;98059.25;;;27.31;61.83
2791;BME280;31795;50.970;13.366;2022-07-03T08:17:57;98054.97;;;27.73;63.52
2791;BME280;31795;50.970;13.366;2022-07-03T08:20:04;98055.13;;;28.01;60.42
2791;BME280;31795;50.970;13.366;2022-07-03T08:22:11;98058.47;;;28.12;60.21
2791;BME280;31795;50.970;13.366;2022-07-03T08:24:18;98058.41;;;28.50;60.59
2791;BME280;31795;50.970;13.366;2022-07-03T08:26:32;98056.97;;;28.72;55.11
2791;BME280;31795;50.970;13.366;2022-07-03T08:28:39;98060.91;;;28.47;53.96
2791;BME280;31795;50.970;13.366;2022-07-03T08:30:46;98047.84;;;28.40;53.40
2791;BME280;31795;50.970;13.366;2022-07-03T08:33:03;98057.63;;;28.83;56.39
2791;BME280;31795;50.970;13.366;2022-07-03T08:35:09;98060.63;;;28.81;51.90
2791;BME280;31795;50.970;13.366;2022-07-03T08:37:16;98053.88;;;28.98;51.58
2791;BME280;31795;50.970;13.366;2022-07-03T08:39:22;98048.47;;;28.84;51.22
2791;BME280;31795;50.970;13.366;2022-07-03T08:41:30;98060.47;;;28.39;54.12
2791;BME280;31795;50.970;13.366;2022-07-03T08:43:40;98058.94;;;28.66;52.87
2791;BME280;31795;50.970;13.366;2022-07-03T08:45:50;98059.91;;;28.23;50.30
2791;BME280;31795;50.970;13.366;2022-07-03T08:47:59;98059.53;;;27.73;53.07
2791;BME280;31795;50.970;13.366;2022-07-03T08:50:06;98055.06;;;27.68;53.17
2791;BME280;31795;50.970;13.366;2022-07-03T08:52:13;98055.06;;;27.19;54.73
2791;BME280;31795;50.970;13.366;2022-07-03T08:54:20;98055.56;;;27.89;59.49
2791;BME280;31795;50.970;13.366;2022-07-03T08:56:27;98046.69;;;28.79;57.63
2791;BME280;31795;50.970;13.366;2022-07-03T08:58:34;98053.84;;;29.54;55.70
2791;BME280;31795;50.970;13.366;2022-07-03T09:00:42;98054.06;;;29.57;53.13
2791;BME280;31795;50.970;13.366;2022-07-03T09:02:49;98048.59;;;28.93;50.06
2791;BME280;31795;50.970;13.366;2022-07-03T09:04:57;98042.91;;;29.64;50.31
2791;BME280;31795;50.970;13.366;2022-07-03T09:07:06;98035.50;;;30.06;48.92
2791;BME280;31795;50.970;13.366;2022-07-03T09:09:13;98035.88;;;30.59;48.75
2791;BME280;31795;50.970;13.366;2022-07-03T09:11:20;98039.81;;;30.84;45.40
2791;BME280;31795;50.970;13.366;2022-07-03T09:13:26;98040.97;;;31.32;48.89
2791;BME280;31795;50.970;13.366;2022-07-03T09:15:33;98036.69;;;31.40;43.93
2791;BME280;31795;50.970;13.366;2022-07-03T09:17:55;98039.63;;;31.88;47.30
2791;BME280;31795;50.970;13.366;2022-07-03T09:20:03;98039.00;;;31.91;47.37
2791;BME280;31795;50.970;13.366;2022-07-03T09:22:19;98027.88;;;31.75;41.52
2791;BME280;31795;50.970;13.366;2022-07-03T09:24:32;98032.78;;;32.17;46.83
2791;BME280;31795;50.970;13.366;2022-07-03T09:26:50;98032.31;;;32.41;46.33
2791;BME280;31795;50.970;13.366;2022-07-03T09:28:57;98033.72;;;32.38;45.94
2791;BME280;31795;50.970;13.366;2022-07-03T09:31:03;98028.03;;;31.87;42.90
2791;BME280;31795;50.970;13.366;2022-07-03T09:33:18;98023.38;;;31.44;42.65
2791;BME280;31795;50.970;13.366;2022-07-03T09:35:25;98021.94;;;30.88;42.38
2791;BME280;31795;50.970;13.366;2022-07-03T09:37:32;98026.84;;;31.36;45.97
2791;BME280;31795;50.970;13.366;2022-07-03T09:39:38;98021.41;;;31.18;43.53
2791;BME280;31795;50.970;13.366;2022-07-03T09:41:58;98025.44;;;31.64;44.95
2791;BME280;31795;50.970;13.366;2022-07-03T09:44:07;98015.75;;;31.37;42.37
2791;BME280;31795;50.970;13.366;2022-07-03T09:46:14;98021.41;;;31.18;40.35
2791;BME280;31795;50.970;13.366;2022-07-03T09:48:29;98016.94;;;30.73;44.20
2791;BME280;31795;50.970;13.366;2022-07-03T09:50:35;98007.97;;;31.27;41.91
2791;BME280;31795;50.970;13.366;2022-07-03T09:52:43;98010.03;;;31.39;41.77
2791;BME280;31795;50.970;13.366;2022-07-03T09:54:49;98013.44;;;31.79;44.43
2791;BME280;31795;50.970;13.366;2022-07-03T09:56:56;98015.66;;;31.95;44.79
2791;BME280;31795;50.970;13.366;2022-07-03T09:59:08;98005.66;;;31.95;43.90
2791;BME280;31795;50.970;13.366;2022-07-03T10:01:16;98007.50;;;32.21;44.14
2791;BME280;31795;50.970;13.366;2022-07-03T10:03:24;98006.91;;;32.33;41.17
2791;BME280;31795;50.970;13.366;2022-07-03T10:05:32;98004.00;;;31.42;40.54
2791;BME280;31795;50.970;13.366;2022-07-03T10:07:49;98007.84;;;30.60;43.04
2791;BME280;31795;50.970;13.366;2022-07-03T10:09:56;98007.41;;;30.67;46.15
2791;BME280;31795;50.970;13.366;2022-07-03T10:12:07;98003.53;;;30.91;42.75
2791;BME280;31795;50.970;13.366;2022-07-03T10:14:15;97999.88;;;31.36;42.77
2791;BME280;31795;50.970;13.366;2022-07-03T10:16:23;98008.78;;;31.45;42.58
2791;BME280;31795;50.970;13.366;2022-07-03T10:18:35;98002.50;;;31.76;42.76
2791;BME280;31795;50.970;13.366;2022-07-03T10:20:45;98008.47;;;32.08;43.76
2791;BME280;31795;50.970;13.366;2022-07-03T10:22:52;97997.34;;;32.09;38.73
2791;BME280;31795;50.970;13.366;2022-07-03T10:25:00;98004.34;;;32.28;43.88
2791;BME280;31795;50.970;13.366;2022-07-03T10:27:07;98011.25;;;32.55;43.45
2791;BME280;31795;50.970;13.366;2022-07-03T10:29:14;98012.44;;;32.19;41.41
2791;BME280;31795;50.970;13.366;2022-07-03T10:31:24;98009.75;;;31.49;40.10
2791;BME280;31795;50.970;13.366;2022-07-03T10:33:32;98011.53;;;31.89;43.07
2791;BME280;31795;50.970;13.366;2022-07-03T10:35:43;98008.81;;;32.06;39.93
2791;BME280;31795;50.970;13.366;2022-07-03T10:38:07;98004.19;;;32.24;41.13
2791;BME280;31795;50.970;13.366;2022-07-03T10:40:24;97998.09;;;32.45;41.54
2791;BME280;31795;50.970;13.366;2022-07-03T10:42:56;97999.72;;;33.15;41.74
2791;BME280;31795;50.970;13.366;2022-07-03T10:45:24;97997.94;;;32.50;39.28
2791;BME280;31795;50.970;13.366;2022-07-03T10:47:43;98008.38;;;33.38;41.06
2791;BME280;31795;50.970;13.366;2022-07-03T10:50:01;98002.69;;;33.01;39.40
2791;BME280;31795;50.970;13.366;2022-07-03T10:52:16;98000.50;;;32.47;38.51
2791;BME280;31795;50.970;13.366;2022-07-03T10:54:27;97994.34;;;32.29;37.55
2791;BME280;31795;50.970;13.366;2022-07-03T10:57:09;97988.47;;;32.35;38.26
2791;BME280;31795;50.970;13.366;2022-07-03T10:59:19;97981.88;;;31.04;40.32
2791;BME280;31795;50.970;13.366;2022-07-03T11:01:26;97980.56;;;30.93;42.42
2791;BME280;31795;50.970;13.366;2022-07-03T11:03:52;97980.91;;;31.76;40.71
2791;BME280;31795;50.970;13.366;2022-07-03T11:06:02;97964.53;;;31.90;40.80
2791;BME280;31795;50.970;13.366;2022-07-03T11:08:12;97971.38;;;32.61;41.45
2791;BME280;31795;50.970;13.366;2022-07-03T11:10:37;97976.34;;;32.50;38.05
2791;BME280;31795;50.970;13.366;2022-07-03T11:12:54;97969.97;;;32.46;36.66
2791;BME280;31795;50.970;13.366;2022-07-03T11:15:29;97968.38;;;32.45;37.96
2791;BME280;31795;50.970;13.366;2022-07-03T11:17:36;97968.63;;;32.14;37.95
2791;BME280;31795;50.970;13.366;2022-07-03T11:19:43;97968.81;;;32.00;37.72
2791;BME280;31795;50.970;13.366;2022-07-03T11:22:17;97965.16;;;31.87;35.83
2791;BME280;31795;50.970;13.366;2022-07-03T11:24:36;97959.75;;;31.78;39.04
2791;BME280;31795;50.970;13.366;2022-07-03T11:26:44;97957.25;;;31.82;35.74
2791;BME280;31795;50.970;13.366;2022-07-03T11:28:52;97959.91;;;31.55;39.70
2791;BME280;31795;50.970;13.366;2022-07-03T11:31:17;97957.66;;;32.19;39.59
2791;BME280;31795;50.970;13.366;2022-07-03T11:33:40;97959.59;;;32.96;41.47
2791;BME280;31795;50.970;13.366;2022-07-03T11:35:49;97961.16;;;33.27;38.42